createdAt,value
2022-12-08T00:00:33.694Z,6.29
2022-12-08T00:05:59.130Z,6.29
2022-12-08T00:11:07.289Z,6.27
2022-12-08T00:16:15.649Z,6.25
2022-12-08T00:21:22.932Z,6.25
2022-12-08T00:26:30.704Z,6.04
2022-12-08T00:31:38.964Z,5.13
2022-12-08T00:36:47.329Z,4.44
2022-12-08T00:42:13.657Z,3.92
2022-12-08T00:47:24.802Z,3.49
2022-12-08T00:52:33.499Z,3.46
2022-12-08T00:57:41.979Z,4.02
2022-12-08T01:02:50.229Z,4.34
2022-12-08T01:07:58.224Z,4.55
2022-12-08T01:13:05.375Z,4.75
2022-12-08T01:18:13.328Z,4.91
2022-12-08T01:23:21.313Z,5.03
2022-12-08T01:28:29.271Z,5.13
2022-12-08T01:33:36.535Z,5.24
2022-12-08T01:38:44.465Z,5.32
2022-12-08T01:44:02.963Z,5.40
2022-12-08T01:49:15.028Z,5.12
2022-12-08T01:54:25.300Z,4.33
2022-12-08T01:59:35.530Z,3.78
2022-12-08T02:04:43.650Z,3.38
2022-12-08T02:09:52.957Z,3.06
2022-12-08T02:15:04.983Z,3.04
2022-12-08T02:20:37.435Z,3.44
2022-12-08T02:26:09.603Z,3.64
2022-12-08T02:31:30.597Z,3.79
2022-12-08T02:36:46.006Z,3.91
2022-12-08T02:42:04.046Z,4.00
2022-12-08T02:47:15.937Z,4.09
2022-12-08T02:52:47.033Z,4.15
2022-12-08T02:58:29.989Z,4.20
2022-12-08T03:03:48.980Z,4.25
2022-12-08T03:09:01.820Z,4.29
2022-12-08T03:14:13.313Z,4.31
2022-12-08T03:19:25.105Z,4.33
2022-12-08T03:24:36.110Z,4.33
2022-12-08T03:29:44.482Z,4.32
2022-12-08T03:34:55.105Z,4.32
2022-12-08T03:40:03.536Z,4.33
2022-12-08T03:45:12.891Z,4.32
2022-12-08T03:50:21.121Z,4.31
2022-12-08T03:55:29.129Z,4.31
2022-12-08T04:00:37.231Z,4.31
2022-12-08T04:05:45.547Z,4.30
2022-12-08T04:10:53.509Z,4.31
2022-12-08T04:16:00.681Z,4.32
2022-12-08T04:21:09.431Z,4.32
2022-12-08T04:26:18.585Z,4.35
2022-12-08T04:31:26.769Z,4.35
2022-12-08T04:36:34.805Z,4.35
2022-12-08T04:41:42.866Z,4.35
2022-12-08T04:46:50.933Z,4.33
2022-12-08T04:51:59.504Z,4.30
2022-12-08T04:57:07.638Z,4.27
2022-12-08T05:02:15.813Z,4.23
2022-12-08T05:07:24.269Z,4.19
2022-12-08T05:12:32.237Z,4.16
2022-12-08T05:17:40.270Z,4.15
2022-12-08T05:22:48.261Z,4.15
2022-12-08T05:28:17.586Z,4.15
2022-12-08T05:33:24.910Z,4.16
2022-12-08T05:38:32.967Z,4.17
2022-12-08T05:43:41.080Z,4.17
2022-12-08T05:48:48.754Z,4.18
2022-12-08T05:53:57.953Z,4.20
2022-12-08T05:59:09.039Z,4.22
2022-12-08T06:04:17.102Z,4.24
2022-12-08T06:09:25.567Z,4.27
2022-12-08T06:14:34.217Z,4.29
2022-12-08T06:19:42.278Z,4.31
2022-12-08T06:24:50.351Z,4.32
2022-12-08T06:29:58.524Z,4.34
2022-12-08T06:35:07.259Z,4.34
2022-12-08T06:40:17.185Z,4.34
2022-12-08T06:45:25.446Z,4.34
2022-12-08T06:50:35.442Z,4.36
2022-12-08T06:56:02.049Z,4.37
2022-12-08T07:01:12.710Z,4.38
2022-12-08T07:06:24.179Z,4.38
2022-12-08T07:11:32.663Z,4.39
2022-12-08T07:16:40.857Z,4.41
2022-12-08T07:21:48.897Z,4.42
2022-12-08T07:26:56.967Z,4.44
2022-12-08T07:32:05.025Z,4.45
2022-12-08T07:37:13.136Z,4.47
2022-12-08T07:42:20.345Z,4.49
2022-12-08T07:47:28.412Z,4.51
2022-12-08T07:52:37.535Z,4.52
2022-12-08T07:57:45.513Z,4.53
2022-12-08T08:02:53.644Z,4.53
2022-12-08T08:08:01.908Z,4.55
2022-12-08T08:13:10.295Z,4.56
2022-12-08T08:18:18.831Z,4.58
2022-12-08T08:23:26.857Z,4.60
2022-12-08T08:28:35.640Z,4.62
2022-12-08T08:33:43.707Z,4.64
2022-12-08T08:38:51.977Z,4.66
2022-12-08T08:44:00.110Z,4.67
2022-12-08T08:49:07.335Z,4.68
2022-12-08T08:54:15.568Z,4.68
2022-12-08T08:59:23.689Z,4.69
2022-12-08T09:04:32.204Z,4.50
2022-12-08T09:09:41.658Z,3.94
2022-12-08T09:14:49.971Z,3.56
2022-12-08T09:19:58.665Z,3.29
2022-12-08T09:25:07.472Z,3.07
2022-12-08T09:30:15.719Z,2.88
2022-12-08T09:35:23.832Z,2.72
2022-12-08T09:40:35.232Z,2.80
2022-12-08T09:45:43.613Z,3.28
2022-12-08T09:50:56.479Z,3.52
2022-12-08T09:56:08.657Z,3.69
2022-12-08T10:01:18.450Z,3.84
2022-12-08T10:06:33.548Z,3.96
2022-12-08T10:11:54.516Z,4.05
2022-12-08T10:17:08.282Z,3.87
2022-12-08T10:22:25.251Z,3.40
2022-12-08T10:27:36.664Z,3.10
2022-12-08T10:32:48.621Z,2.88
2022-12-08T10:38:06.875Z,2.69
2022-12-08T10:43:20.164Z,2.52
2022-12-08T10:48:31.662Z,2.38
2022-12-08T10:53:48.896Z,2.24
2022-12-08T10:59:15.181Z,2.12
2022-12-08T11:04:26.225Z,2.02
2022-12-08T11:09:47.161Z,2.16
2022-12-08T11:15:02.777Z,2.75
2022-12-08T11:20:24.897Z,3.11
2022-12-08T11:25:32.989Z,3.36
2022-12-08T11:30:45.652Z,3.46
2022-12-08T11:35:57.442Z,3.62
2022-12-08T11:41:15.726Z,3.77
2022-12-08T11:46:29.961Z,3.90
2022-12-08T11:51:41.343Z,4.00
2022-12-08T11:56:53.331Z,4.09
2022-12-08T12:02:01.633Z,4.16
2022-12-08T12:07:46.156Z,4.22
2022-12-08T12:13:07.037Z,4.29
2022-12-08T12:18:21.010Z,4.35
2022-12-08T12:23:38.818Z,4.19
2022-12-08T12:28:52.734Z,3.65
2022-12-08T12:34:10.578Z,3.30
2022-12-08T12:39:20.664Z,3.03
2022-12-08T12:44:41.019Z,2.82
2022-12-08T12:50:11.153Z,2.64
2022-12-08T12:55:53.755Z,2.73
2022-12-08T13:01:31.689Z,3.33
2022-12-08T13:06:43.709Z,3.58
2022-12-08T13:11:57.175Z,3.71
2022-12-08T13:17:07.176Z,3.85
2022-12-08T13:22:49.073Z,3.99
2022-12-08T13:28:10.979Z,4.09
2022-12-08T13:33:24.697Z,4.18
2022-12-08T13:38:37.491Z,4.24
2022-12-08T13:44:20.584Z,4.28
2022-12-08T13:56:05.386Z,4.36
2022-12-08T14:00:28.031Z,4.41
2022-12-08T14:11:34.462Z,4.43
2022-12-08T14:16:44.201Z,4.45
2022-12-08T14:21:56.169Z,4.45
2022-12-08T14:27:07.246Z,4.46
2022-12-08T14:32:31.953Z,4.45
2022-12-08T14:37:44.064Z,4.44
2022-12-08T14:42:55.839Z,4.43
2022-12-08T14:48:22.608Z,4.41
2022-12-08T14:53:40.004Z,4.40
2022-12-08T14:58:49.360Z,4.39
2022-12-08T15:04:05.286Z,4.39
2022-12-08T15:09:33.089Z,4.39
2022-12-08T15:14:42.868Z,4.38
2022-12-08T15:20:00.828Z,4.39
2022-12-08T15:25:14.221Z,4.41
2022-12-08T15:30:22.622Z,4.42
2022-12-08T15:35:34.672Z,4.43
2022-12-08T15:40:46.114Z,4.45
2022-12-08T15:45:59.389Z,4.46
2022-12-08T15:51:08.207Z,4.48
2022-12-08T15:56:27.289Z,4.50
2022-12-08T16:01:36.201Z,4.54
2022-12-08T16:13:26.935Z,4.65
2022-12-08T16:18:05.595Z,4.69
2022-12-08T16:23:34.603Z,4.74
2022-12-08T16:28:54.136Z,4.78
2022-12-08T16:34:03.940Z,4.82
2022-12-08T16:39:14.573Z,4.86
2022-12-08T16:44:23.617Z,4.90
2022-12-08T16:49:30.687Z,4.94
2022-12-08T16:54:39.561Z,4.98
2022-12-08T16:59:48.139Z,5.02
2022-12-08T17:04:56.945Z,5.06
2022-12-08T17:10:07.141Z,5.10
2022-12-08T17:15:20.904Z,5.13
2022-12-08T17:20:30.642Z,5.17
2022-12-08T17:25:38.219Z,5.21
2022-12-08T17:30:47.221Z,5.25
2022-12-08T17:35:57.177Z,5.29
2022-12-08T17:41:08.684Z,5.33
2022-12-08T17:46:21.019Z,5.37
2022-12-08T17:51:27.454Z,5.41
2022-12-08T17:56:36.294Z,5.43
2022-12-08T18:01:43.637Z,5.48
2022-12-08T18:06:52.009Z,5.51
2022-12-08T18:12:00.025Z,5.54
2022-12-08T18:17:08.809Z,5.57
2022-12-08T18:22:17.075Z,5.60
2022-12-08T18:27:25.215Z,5.64
2022-12-08T18:32:34.099Z,5.66
2022-12-08T18:37:43.612Z,5.69
2022-12-08T18:42:53.162Z,5.72
2022-12-08T18:48:01.450Z,5.74
2022-12-08T18:53:09.791Z,5.77
2022-12-08T18:58:18.243Z,5.79
2022-12-08T19:03:26.716Z,5.82
2022-12-08T19:08:35.651Z,5.84
2022-12-08T19:13:44.531Z,5.86
2022-12-08T19:18:53.380Z,5.87
2022-12-08T19:24:01.927Z,5.89
2022-12-08T19:29:10.683Z,5.91
2022-12-08T19:34:19.431Z,5.93
2022-12-08T19:39:46.039Z,5.95
2022-12-08T19:44:54.639Z,5.96
2022-12-08T19:50:20.964Z,5.98
2022-12-08T19:55:29.636Z,6.00
2022-12-08T20:00:40.986Z,6.02
2022-12-08T20:05:52.981Z,6.03
2022-12-08T20:11:01.759Z,6.05
2022-12-08T20:16:10.696Z,6.06
2022-12-08T20:21:19.772Z,6.06
2022-12-08T20:26:28.363Z,6.07
2022-12-08T20:31:36.823Z,6.07
2022-12-08T20:36:45.190Z,6.08
2022-12-08T20:41:54.924Z,6.08
2022-12-08T20:47:03.500Z,6.08
2022-12-08T20:52:12.357Z,6.07
2022-12-08T20:57:20.484Z,6.07
2022-12-08T21:02:28.771Z,6.07
2022-12-08T21:07:38.142Z,6.06
2022-12-08T21:12:46.663Z,6.07
2022-12-08T21:17:55.277Z,6.07
2022-12-08T21:23:04.317Z,6.07
2022-12-08T21:28:13.614Z,6.07
2022-12-08T21:33:22.435Z,6.08
2022-12-08T21:38:31.028Z,6.08
2022-12-08T21:43:39.763Z,6.07
2022-12-08T21:48:48.271Z,6.06
2022-12-08T21:53:56.690Z,6.05
2022-12-08T21:59:06.193Z,6.04
2022-12-08T22:04:18.464Z,6.02
2022-12-08T22:09:27.106Z,6.01
2022-12-08T22:14:35.325Z,6.00
2022-12-08T22:19:43.381Z,5.98
2022-12-08T22:24:51.588Z,5.97
2022-12-08T22:29:59.883Z,5.98
2022-12-08T22:35:08.716Z,5.98
2022-12-08T22:40:17.533Z,5.99
2022-12-08T22:45:25.938Z,6.00
2022-12-08T22:50:34.287Z,5.99
2022-12-08T22:55:47.001Z,5.98
2022-12-08T23:00:55.342Z,5.97
2022-12-08T23:06:03.926Z,5.96
2022-12-08T23:11:12.200Z,5.95
2022-12-08T23:16:20.472Z,5.95
2022-12-08T23:21:29.852Z,5.94
2022-12-08T23:26:38.132Z,5.94
2022-12-08T23:31:46.374Z,5.93
2022-12-08T23:36:54.432Z,5.92
2022-12-08T23:42:02.731Z,5.91
2022-12-08T23:47:11.040Z,5.91
2022-12-08T23:52:19.823Z,5.90
2022-12-08T23:57:28.182Z,5.90
